createdAt,value
2023-05-13T00:01:58.138Z,7.00
2023-05-13T00:04:25.110Z,6.60
2023-05-13T00:06:52.506Z,6.40
2023-05-13T00:09:19.557Z,7.00
2023-05-13T00:11:46.641Z,6.90
2023-05-13T00:14:14.913Z,12.10
2023-05-13T00:16:44.189Z,7.70
2023-05-13T00:19:12.973Z,7.70
2023-05-13T00:21:40.021Z,7.10
2023-05-13T00:24:07.523Z,8.10
2023-05-13T00:26:34.657Z,7.50
2023-05-13T00:29:01.645Z,7.60
2023-05-13T00:31:28.822Z,7.50
2023-05-13T00:33:56.502Z,7.80
2023-05-13T00:36:24.281Z,8.40
2023-05-13T00:38:51.364Z,7.80
2023-05-13T00:41:18.938Z,8.00
2023-05-13T00:43:46.058Z,7.30
2023-05-13T00:46:13.166Z,8.20
2023-05-13T00:48:40.174Z,7.70
2023-05-13T00:51:09.936Z,8.00
2023-05-13T00:53:37.878Z,7.90
2023-05-13T00:56:05.248Z,8.30
2023-05-13T00:58:32.364Z,7.80
2023-05-13T01:01:05.536Z,7.80
2023-05-13T01:03:59.444Z,7.70
2023-05-13T01:06:44.878Z,7.70
2023-05-13T01:09:18.555Z,7.40
2023-05-13T01:11:45.596Z,7.40
2023-05-13T01:14:22.313Z,7.20
2023-05-13T01:17:02.466Z,7.30
2023-05-13T01:19:43.328Z,7.40
2023-05-13T01:22:11.898Z,7.40
2023-05-13T01:24:38.923Z,6.80
2023-05-13T01:27:06.146Z,7.40
2023-05-13T01:29:33.208Z,7.20
2023-05-13T01:32:00.427Z,7.30
2023-05-13T01:34:27.654Z,7.40
2023-05-13T01:36:54.692Z,6.90
2023-05-13T01:39:22.256Z,6.80
2023-05-13T01:41:49.635Z,6.30
2023-05-13T01:44:18.057Z,6.80
2023-05-13T01:46:45.597Z,6.60
2023-05-13T01:49:13.100Z,6.40
2023-05-13T01:51:41.545Z,6.00
2023-05-13T01:54:08.815Z,6.20
2023-05-13T01:56:40.364Z,6.90
2023-05-13T01:59:10.701Z,6.60
2023-05-13T02:01:37.750Z,6.60
2023-05-13T02:04:07.354Z,6.40
2023-05-13T02:06:34.516Z,6.90
2023-05-13T02:09:01.994Z,6.90
2023-05-13T02:11:29.414Z,6.60
2023-05-13T02:13:57.631Z,6.70
2023-05-13T02:16:24.677Z,7.20
2023-05-13T02:18:51.804Z,6.80
2023-05-13T02:21:19.723Z,7.20
2023-05-13T02:23:46.946Z,7.30
2023-05-13T02:26:13.921Z,6.50
2023-05-13T02:28:40.988Z,7.00
2023-05-13T02:31:08.342Z,6.50
2023-05-13T02:33:35.852Z,6.30
2023-05-13T02:36:02.965Z,6.80
2023-05-13T02:38:30.052Z,6.40
2023-05-13T02:40:57.124Z,6.20
2023-05-13T02:43:27.699Z,6.40
2023-05-13T02:48:24.884Z,6.00
2023-05-13T02:50:53.015Z,5.50
2023-05-13T02:53:20.591Z,6.20
2023-05-13T02:55:52.590Z,6.00
2023-05-13T02:58:20.566Z,6.20
2023-05-13T03:00:47.683Z,5.80
2023-05-13T03:03:15.941Z,5.50
2023-05-13T03:05:43.199Z,5.30
2023-05-13T03:08:10.226Z,5.50
2023-05-13T03:10:38.274Z,6.20
2023-05-13T03:13:08.943Z,5.70
2023-05-13T03:15:36.371Z,5.60
2023-05-13T03:18:03.851Z,5.10
2023-05-13T03:20:31.528Z,5.30
2023-05-13T03:22:59.780Z,5.60
2023-05-13T03:25:27.807Z,5.70
2023-05-13T03:27:57.620Z,5.80
2023-05-13T03:30:26.625Z,6.30
2023-05-13T03:33:00.145Z,5.90
2023-05-13T03:35:27.520Z,6.40
2023-05-13T03:37:54.915Z,6.10
2023-05-13T03:40:22.350Z,5.30
2023-05-13T03:42:52.190Z,5.40
2023-05-13T03:45:20.668Z,5.50
2023-05-13T03:47:50.461Z,5.70
2023-05-13T03:50:18.066Z,5.70
2023-05-13T03:52:47.094Z,5.40
2023-05-13T03:55:15.669Z,4.90
2023-05-13T03:57:48.323Z,5.00
2023-05-13T04:00:17.595Z,4.60
2023-05-13T04:02:44.841Z,4.30
2023-05-13T04:05:14.211Z,4.00
2023-05-13T04:07:47.665Z,4.00
2023-05-13T04:10:15.810Z,4.10
2023-05-13T04:12:43.843Z,3.70
2023-05-13T04:15:11.076Z,3.70
2023-05-13T04:17:38.274Z,3.40
2023-05-13T04:20:07.749Z,3.50
2023-05-13T04:22:35.490Z,3.50
2023-05-13T04:25:02.853Z,3.90
2023-05-13T04:27:29.856Z,4.00
2023-05-13T04:30:09.189Z,4.20
2023-05-13T04:32:39.396Z,4.30
2023-05-13T04:35:09.966Z,3.70
2023-05-13T04:37:38.991Z,4.20
2023-05-13T04:40:11.653Z,3.80
2023-05-13T04:42:38.692Z,3.50
2023-05-13T04:45:06.425Z,3.60
2023-05-13T04:47:35.509Z,4.10
2023-05-13T04:50:02.594Z,5.20
2023-05-13T04:52:31.387Z,5.10
2023-05-13T04:54:58.513Z,5.60
2023-05-13T04:57:31.737Z,5.70
2023-05-13T04:59:59.653Z,4.90
2023-05-13T05:02:30.403Z,4.20
2023-05-13T05:04:57.670Z,4.40
2023-05-13T05:07:24.828Z,4.30
2023-05-13T05:09:52.347Z,4.10
2023-05-13T05:12:19.580Z,4.40
2023-05-13T05:14:46.582Z,4.40
2023-05-13T05:17:13.647Z,4.40
2023-05-13T05:19:41.514Z,4.40
2023-05-13T05:22:09.005Z,4.00
2023-05-13T05:24:36.006Z,3.60
2023-05-13T05:27:03.624Z,3.20
2023-05-13T05:29:30.696Z,3.40
2023-05-13T05:31:57.924Z,3.70
2023-05-13T05:34:26.796Z,3.30
2023-05-13T05:36:56.050Z,3.30
2023-05-13T05:39:23.297Z,3.40
2023-05-13T05:41:50.492Z,3.50
2023-05-13T05:44:17.741Z,3.90
2023-05-13T05:46:45.539Z,3.30
2023-05-13T05:49:13.734Z,3.50
2023-05-13T05:51:41.959Z,3.00
2023-05-13T05:54:09.160Z,3.20
2023-05-13T05:56:39.105Z,2.60
2023-05-13T05:59:06.664Z,2.70
2023-05-13T06:01:37.945Z,2.70
2023-05-13T06:04:05.786Z,2.70
2023-05-13T06:06:33.107Z,2.50
2023-05-13T06:09:00.486Z,2.80
2023-05-13T06:11:27.814Z,2.40
2023-05-13T06:13:57.745Z,2.50
2023-05-13T06:16:24.830Z,2.50
2023-05-13T06:18:52.589Z,2.30
2023-05-13T06:21:19.761Z,2.40
2023-05-13T06:23:49.442Z,2.60
2023-05-13T06:26:17.209Z,2.50
2023-05-13T06:28:44.942Z,2.30
2023-05-13T06:31:12.213Z,2.20
2023-05-13T06:33:40.624Z,2.50
2023-05-13T06:36:09.503Z,2.50
2023-05-13T06:38:37.814Z,2.20
2023-05-13T06:41:05.215Z,1.70
2023-05-13T06:43:39.175Z,1.70
2023-05-13T06:46:21.184Z,1.60
2023-05-13T06:48:52.693Z,1.80
2023-05-13T06:51:19.714Z,1.70
2023-05-13T06:53:52.637Z,1.50
2023-05-13T06:56:27.089Z,1.60
2023-05-13T06:58:56.663Z,1.70
2023-05-13T07:01:29.900Z,1.60
2023-05-13T07:03:57.682Z,1.50
2023-05-13T07:06:24.867Z,1.30
2023-05-13T07:08:52.150Z,1.40
2023-05-13T07:11:20.111Z,1.30
2023-05-13T07:15:24.682Z,1.40
2023-05-13T07:17:52.412Z,1.50
2023-05-13T07:20:23.116Z,1.90
2023-05-13T07:22:54.186Z,1.80
2023-05-13T07:25:22.222Z,1.50
2023-05-13T07:27:50.208Z,1.60
2023-05-13T07:30:18.778Z,1.70
2023-05-13T07:32:46.031Z,1.70
2023-05-13T07:35:13.197Z,1.50
2023-05-13T07:37:40.546Z,1.50
2023-05-13T07:40:08.429Z,1.70
2023-05-13T07:42:37.406Z,1.60
2023-05-13T07:45:11.303Z,1.40
2023-05-13T07:47:39.274Z,1.70
2023-05-13T07:50:07.467Z,1.70
2023-05-13T07:52:34.875Z,1.90
2023-05-13T07:55:02.734Z,1.40
2023-05-13T07:57:37.437Z,1.30
2023-05-13T08:00:07.758Z,1.40
2023-05-13T08:02:41.770Z,1.50
2023-05-13T08:05:11.965Z,1.40
2023-05-13T08:07:39.228Z,1.40
2023-05-13T08:10:10.025Z,1.20
2023-05-13T08:12:37.984Z,1.60
2023-05-13T08:20:44.055Z,1.30
2023-05-13T08:23:12.488Z,1.20
2023-05-13T08:25:43.225Z,1.30
2023-05-13T08:28:27.405Z,1.30
2023-05-13T08:30:54.601Z,1.50
2023-05-13T08:33:29.829Z,1.20
2023-05-13T08:36:29.512Z,1.30
2023-05-13T08:38:56.882Z,1.50
2023-05-13T08:41:23.932Z,1.10
2023-05-13T08:43:51.011Z,1.30
2023-05-13T08:46:18.204Z,1.20
2023-05-13T08:48:45.566Z,1.30
2023-05-13T08:51:13.381Z,1.20
2023-05-13T08:53:41.301Z,1.20
2023-05-13T08:56:08.698Z,1.30
2023-05-13T08:58:35.873Z,1.10
2023-05-13T09:01:04.603Z,1.30
2023-05-13T09:03:31.678Z,1.40
2023-05-13T09:06:01.893Z,1.30
2023-05-13T09:08:29.136Z,1.10
2023-05-13T09:10:57.108Z,1.20
2023-05-13T09:13:26.920Z,1.30
2023-05-13T09:15:54.266Z,1.20
2023-05-13T09:18:21.925Z,1.20
2023-05-13T09:20:49.273Z,1.20
2023-05-13T09:23:16.372Z,1.40
2023-05-13T09:25:43.369Z,1.30
2023-05-13T09:28:14.662Z,1.30
2023-05-13T09:30:44.530Z,1.30
2023-05-13T09:33:14.168Z,1.00
2023-05-13T09:35:54.169Z,1.60
2023-05-13T09:38:25.574Z,1.10
2023-05-13T09:40:59.367Z,1.30
2023-05-13T09:43:29.010Z,1.40
2023-05-13T09:45:57.810Z,1.20
2023-05-13T09:48:26.617Z,1.20
2023-05-13T09:50:55.862Z,1.30
2023-05-13T09:53:23.645Z,1.40
2023-05-13T09:55:53.094Z,1.40
2023-05-13T09:58:21.354Z,1.20
2023-05-13T10:00:52.888Z,1.30
2023-05-13T10:03:21.524Z,1.40
2023-05-13T10:05:51.085Z,1.20
2023-05-13T10:08:18.414Z,1.20
2023-05-13T10:10:47.011Z,1.10
2023-05-13T10:13:16.617Z,1.10
2023-05-13T10:15:54.555Z,1.40
2023-05-13T10:18:22.594Z,1.10
2023-05-13T10:20:54.271Z,1.50
2023-05-13T10:23:23.295Z,1.10
2023-05-13T10:25:51.439Z,1.30
2023-05-13T10:28:18.546Z,1.10
2023-05-13T10:30:45.863Z,1.10
2023-05-13T10:33:13.492Z,1.10
2023-05-13T10:35:48.626Z,1.20
2023-05-13T10:38:31.426Z,1.10
2023-05-13T10:41:11.006Z,1.30
2023-05-13T10:43:38.680Z,1.30
2023-05-13T10:46:08.475Z,1.30
2023-05-13T10:48:41.055Z,1.30
2023-05-13T10:51:09.205Z,1.40
2023-05-13T10:53:39.275Z,1.30
2023-05-13T10:56:08.287Z,1.10
2023-05-13T10:58:39.147Z,1.30
2023-05-13T11:01:18.125Z,1.50
2023-05-13T11:03:55.707Z,1.30
2023-05-13T11:06:24.402Z,1.50
2023-05-13T11:08:55.076Z,1.10
2023-05-13T11:11:31.201Z,1.30
2023-05-13T11:14:14.875Z,1.50
2023-05-13T11:16:52.658Z,1.20
2023-05-13T11:19:27.449Z,1.50
2023-05-13T11:21:58.761Z,1.50
2023-05-13T11:24:26.738Z,1.20
2023-05-13T11:26:58.021Z,1.50
2023-05-13T11:29:38.994Z,1.40
2023-05-13T11:32:07.213Z,1.20
2023-05-13T11:34:34.728Z,1.00
2023-05-13T11:37:05.194Z,1.50
2023-05-13T11:39:34.036Z,1.50
2023-05-13T11:42:08.455Z,1.30
2023-05-13T11:44:35.589Z,1.30
2023-05-13T11:47:06.240Z,1.20
2023-05-13T11:49:36.648Z,1.40
2023-05-13T11:52:04.746Z,1.20
2023-05-13T11:54:33.118Z,1.80
2023-05-13T11:57:00.235Z,2.30
2023-05-13T11:59:33.335Z,1.60
2023-05-13T12:02:05.892Z,1.30
2023-05-13T12:04:34.046Z,1.40
2023-05-13T12:07:01.078Z,3.00
2023-05-13T12:09:28.074Z,1.80
2023-05-13T12:11:55.119Z,1.40
2023-05-13T12:14:22.205Z,1.50
2023-05-13T12:16:49.859Z,2.10
2023-05-13T12:19:17.093Z,2.10
2023-05-13T12:21:44.753Z,1.90
2023-05-13T12:24:19.608Z,1.50
2023-05-13T12:26:46.672Z,1.60
2023-05-13T12:29:13.742Z,2.90
2023-05-13T12:31:44.378Z,1.60
2023-05-13T12:34:12.926Z,2.00
2023-05-13T12:36:40.312Z,1.30
2023-05-13T12:39:19.869Z,1.40
2023-05-13T12:41:57.656Z,1.20
2023-05-13T12:44:29.400Z,1.10
2023-05-13T12:47:01.377Z,0.90
2023-05-13T12:49:28.591Z,1.00
2023-05-13T12:51:57.012Z,1.20
2023-05-13T12:54:25.569Z,1.20
2023-05-13T12:56:52.655Z,1.30
2023-05-13T12:59:19.696Z,2.00
2023-05-13T13:01:48.376Z,1.60
2023-05-13T13:04:18.038Z,1.50
2023-05-13T13:06:45.363Z,1.30
2023-05-13T13:09:13.007Z,1.60
2023-05-13T13:11:40.309Z,1.60
2023-05-13T13:14:09.761Z,1.20
2023-05-13T13:16:36.790Z,1.30
2023-05-13T13:19:03.940Z,1.20
2023-05-13T13:21:30.947Z,1.40
2023-05-13T13:23:58.044Z,1.20
2023-05-13T13:26:38.411Z,1.20
2023-05-13T13:29:15.249Z,1.30
2023-05-13T13:34:21.009Z,1.20
2023-05-13T13:36:48.333Z,1.30
2023-05-13T13:39:15.843Z,1.40
2023-05-13T13:41:43.005Z,1.30
2023-05-13T13:44:10.305Z,1.40
2023-05-13T13:46:37.848Z,1.30
2023-05-13T13:49:13.073Z,1.20
2023-05-13T13:51:50.314Z,1.20
2023-05-13T13:54:17.646Z,1.20
2023-05-13T13:56:45.854Z,1.40
2023-05-13T13:59:13.785Z,1.20
2023-05-13T14:01:41.615Z,1.40
2023-05-13T14:04:28.090Z,1.30
2023-05-13T14:06:55.814Z,1.30
2023-05-13T14:09:22.932Z,1.20
2023-05-13T14:11:50.154Z,1.30
2023-05-13T14:14:37.315Z,1.40
2023-05-13T14:17:04.574Z,1.60
2023-05-13T14:19:31.758Z,1.50
2023-05-13T14:21:59.294Z,1.70
2023-05-13T14:24:27.859Z,1.20
2023-05-13T14:26:55.173Z,1.00
2023-05-13T14:29:22.209Z,1.20
2023-05-13T14:31:59.233Z,1.20
2023-05-13T14:34:26.342Z,1.40
2023-05-13T14:36:53.318Z,1.10
2023-05-13T14:39:22.500Z,1.20
2023-05-13T14:41:49.769Z,1.10
2023-05-13T14:44:17.035Z,1.20
2023-05-13T14:46:44.074Z,1.20
2023-05-13T14:49:11.146Z,1.30
2023-05-13T14:51:38.379Z,1.10
2023-05-13T14:54:05.652Z,1.10
2023-05-13T14:56:32.861Z,1.40
2023-05-13T14:59:02.588Z,1.30
2023-05-13T15:01:29.709Z,1.50
2023-05-13T15:04:00.967Z,1.40
2023-05-13T15:08:56.698Z,1.60
2023-05-13T15:11:27.071Z,2.10
2023-05-13T15:13:55.157Z,1.40
2023-05-13T15:16:22.828Z,1.50
2023-05-13T15:18:50.601Z,1.60
2023-05-13T15:21:18.252Z,1.40
2023-05-13T15:23:46.057Z,1.60
2023-05-13T15:26:14.068Z,1.80
2023-05-13T15:28:45.589Z,1.30
2023-05-13T15:31:13.170Z,1.40
2023-05-13T15:33:42.347Z,1.30
2023-05-13T15:36:10.771Z,1.50
2023-05-13T15:38:40.990Z,1.30
2023-05-13T15:41:08.473Z,1.20
2023-05-13T15:43:36.295Z,1.40
2023-05-13T15:46:05.152Z,1.90
2023-05-13T15:48:35.403Z,1.90
2023-05-13T15:51:08.693Z,1.60
2023-05-13T15:53:37.871Z,1.50
2023-05-13T15:56:10.027Z,1.60
2023-05-13T15:58:37.849Z,1.50
2023-05-13T16:03:50.804Z,1.60
2023-05-13T16:06:19.016Z,1.50
2023-05-13T16:08:46.522Z,1.30
2023-05-13T16:11:14.878Z,1.90
2023-05-13T16:13:43.284Z,1.60
2023-05-13T16:16:23.429Z,1.50
2023-05-13T16:18:55.162Z,3.70
2023-05-13T16:21:26.459Z,2.30
2023-05-13T16:24:01.103Z,3.50
2023-05-13T16:26:28.266Z,1.80
2023-05-13T16:28:57.949Z,1.50
2023-05-13T16:31:27.161Z,1.90
2023-05-13T16:33:57.293Z,1.90
2023-05-13T16:36:25.222Z,1.80
2023-05-13T16:38:57.548Z,1.80
2023-05-13T16:41:25.444Z,1.90
2023-05-13T16:43:57.547Z,11.80
2023-05-13T16:46:30.625Z,60.10
2023-05-13T16:49:04.695Z,21.20
2023-05-13T16:51:36.751Z,8.30
2023-05-13T16:54:07.974Z,5.90
2023-05-13T16:59:42.422Z,7.10
2023-05-13T17:02:28.836Z,11.90
2023-05-13T17:04:57.030Z,9.00
2023-05-13T17:07:26.870Z,8.40
2023-05-13T17:09:55.360Z,4.30
2023-05-13T17:12:24.121Z,4.60
2023-05-13T17:14:59.415Z,4.50
2023-05-13T17:17:33.343Z,3.90
2023-05-13T17:20:09.043Z,3.80
2023-05-13T17:22:49.677Z,2.80
2023-05-13T17:25:31.000Z,3.20
2023-05-13T17:28:04.668Z,3.20
2023-05-13T17:30:43.310Z,4.80
2023-05-13T17:33:16.022Z,13.80
2023-05-13T17:35:47.392Z,8.60
2023-05-13T17:38:28.519Z,7.60
2023-05-13T17:44:01.197Z,6.70
2023-05-13T17:50:35.476Z,5.70
2023-05-13T17:56:29.319Z,6.60
2023-05-13T17:59:16.561Z,4.60
2023-05-13T18:01:58.152Z,4.40
2023-05-13T18:05:02.057Z,3.70
2023-05-13T18:07:48.774Z,3.80
2023-05-13T18:16:18.631Z,3.10
2023-05-13T18:18:48.814Z,3.70
2023-05-13T18:21:21.846Z,3.40
2023-05-13T18:23:51.992Z,3.70
2023-05-13T18:26:21.090Z,3.60
2023-05-13T18:28:54.302Z,7.70
2023-05-13T18:31:49.424Z,12.30
2023-05-13T18:34:26.384Z,11.00
2023-05-13T18:39:55.080Z,10.10
2023-05-13T18:42:30.341Z,9.40
2023-05-13T18:45:01.566Z,10.00
2023-05-13T18:57:29.310Z,8.50
2023-05-13T19:00:12.456Z,9.20
2023-05-13T19:10:55.740Z,8.00
2023-05-13T19:14:40.586Z,8.80
2023-05-13T19:23:55.461Z,10.40
2023-05-13T19:27:55.663Z,9.10
2023-05-13T19:56:07.255Z,6.80
2023-05-13T19:59:57.240Z,8.30
2023-05-13T20:02:24.974Z,8.80
2023-05-13T20:08:15.687Z,9.80
2023-05-13T20:24:22.256Z,8.70
2023-05-13T20:26:49.228Z,9.20
2023-05-13T20:29:25.082Z,8.90
2023-05-13T20:31:54.233Z,9.70
2023-05-13T20:34:36.567Z,12.50
2023-05-13T20:37:06.391Z,11.50
2023-05-13T20:39:44.742Z,11.40
2023-05-13T20:42:12.432Z,10.30
2023-05-13T20:44:41.598Z,10.90
2023-05-13T20:47:18.392Z,10.90
2023-05-13T20:49:52.950Z,11.10
2023-05-13T20:52:20.736Z,10.00
2023-05-13T20:54:53.332Z,9.50
2023-05-13T20:57:29.912Z,8.40
2023-05-13T20:59:58.343Z,7.90
2023-05-13T21:02:30.497Z,7.10
2023-05-13T21:04:57.654Z,8.90
2023-05-13T21:07:25.414Z,9.60
2023-05-13T21:09:55.898Z,8.90
2023-05-13T21:12:26.761Z,7.80
2023-05-13T21:14:53.891Z,7.50
2023-05-13T21:17:23.361Z,8.00
2023-05-13T21:19:51.184Z,8.20
2023-05-13T21:22:20.440Z,8.70
2023-05-13T21:24:51.451Z,8.00
2023-05-13T21:27:19.843Z,8.30
2023-05-13T21:29:48.361Z,7.90
2023-05-13T21:32:19.049Z,7.90
2023-05-13T21:34:46.196Z,8.10
2023-05-13T21:37:13.409Z,8.90
2023-05-13T21:39:40.469Z,9.60
2023-05-13T21:42:07.550Z,8.70
2023-05-13T21:44:34.603Z,11.10
2023-05-13T21:47:01.751Z,10.30
2023-05-13T21:49:28.859Z,9.80
2023-05-13T21:51:56.340Z,9.90
2023-05-13T21:54:23.411Z,10.10
2023-05-13T21:56:50.541Z,10.70
2023-05-13T21:59:17.969Z,10.30
2023-05-13T22:01:45.065Z,10.80
2023-05-13T22:04:12.187Z,11.50
2023-05-13T22:06:39.264Z,12.00
2023-05-13T22:09:07.201Z,11.40
2023-05-13T22:11:34.443Z,10.90
2023-05-13T22:14:01.553Z,10.70
2023-05-13T22:16:28.676Z,10.20
2023-05-13T22:18:58.849Z,10.50
2023-05-13T22:21:26.284Z,12.90
2023-05-13T22:23:53.482Z,11.90
2023-05-13T22:26:20.473Z,12.10
2023-05-13T22:28:48.776Z,11.60
2023-05-13T22:31:17.680Z,11.00
2023-05-13T22:33:46.192Z,11.10
2023-05-13T22:36:16.294Z,9.80
2023-05-13T22:38:43.380Z,10.80
2023-05-13T22:41:11.755Z,10.60
2023-05-13T22:43:38.788Z,10.10
2023-05-13T22:46:07.408Z,10.00
2023-05-13T22:48:34.522Z,10.20
2023-05-13T22:51:01.599Z,10.40
2023-05-13T22:53:28.645Z,9.90
2023-05-13T22:55:55.869Z,9.70
2023-05-13T22:58:22.890Z,9.20
2023-05-13T23:00:50.139Z,9.10
2023-05-13T23:03:17.367Z,10.30
2023-05-13T23:05:44.496Z,9.20
2023-05-13T23:08:11.470Z,10.20
2023-05-13T23:10:38.606Z,9.90
2023-05-13T23:13:08.248Z,9.70
2023-05-13T23:15:36.945Z,9.70
2023-05-13T23:18:04.222Z,9.90
2023-05-13T23:20:31.280Z,9.10
2023-05-13T23:22:58.310Z,10.10
2023-05-13T23:25:26.056Z,10.60
2023-05-13T23:27:53.069Z,10.30
2023-05-13T23:30:20.215Z,10.60
2023-05-13T23:32:47.316Z,11.20
2023-05-13T23:35:14.449Z,10.20
2023-05-13T23:37:41.489Z,9.90
2023-05-13T23:40:09.068Z,9.90
2023-05-13T23:42:36.260Z,9.70
2023-05-13T23:45:03.594Z,9.60
2023-05-13T23:47:30.717Z,10.10
2023-05-13T23:49:58.351Z,9.00
2023-05-13T23:52:25.441Z,8.60
2023-05-13T23:54:52.485Z,8.50
2023-05-13T23:57:19.576Z,8.20
2023-05-13T23:59:46.545Z,7.50
